Time;durP1;ratioP1;P1;durP2;ratioP2;P2;SDS_P1;SDS_P2;PMS_P1;PMS_P2;Temp;Humidity;BMP_temperature;BMP_pressure;BME280_temperature;BME280_humidity;BME280_pressure;Samples;Min_cycle;Max_cycle;Signal;HPM_P1;HPM_P2
2022/12/29 00:00:10;;;;;;;10.90;5.57;;;5.80;99.90;;;;;;5013563;28;20221;-80
2022/12/29 00:02:37;;;;;;;11.97;5.40;;;5.80;99.90;;;;;;4995796;28;20292;-80
2022/12/29 00:05:05;;;;;;;11.57;5.27;;;5.80;99.90;;;;;;4996175;28;20202;-80
2022/12/29 00:07:32;;;;;;;11.27;5.80;;;5.90;99.90;;;;;;4996282;28;20212;-80
2022/12/29 00:09:59;;;;;;;11.63;5.20;;;5.80;99.90;;;;;;4995935;28;20634;-79
2022/12/29 00:15:36;;;;;;;10.97;5.20;;;5.80;99.90;;;;;;4996021;28;20274;-80
2022/12/29 00:17:59;;;;;;;9.63;4.90;;;5.80;99.90;;;;;;5013807;28;20181;-80
2022/12/29 00:37:04;;;;;;;8.43;4.80;;;5.80;99.90;;;;;;4999392;28;20193;-80
2022/12/29 00:45:02;;;;;;;10.27;5.13;;;5.80;99.90;;;;;;5006877;28;20201;-83
2022/12/29 00:47:30;;;;;;;9.57;5.23;;;5.80;99.90;;;;;;5008414;28;20203;-86
2022/12/29 00:49:57;;;;;;;11.00;4.80;;;5.80;99.90;;;;;;4991497;28;20669;-85
2022/12/29 00:52:24;;;;;;;10.30;4.87;;;5.80;99.90;;;;;;5006581;28;20654;-84
2022/12/29 00:54:51;;;;;;;10.73;5.00;;;5.80;99.90;;;;;;5020879;28;20196;-84
2022/12/29 00:57:18;;;;;;;10.27;5.00;;;5.80;99.90;;;;;;4990752;28;20214;-84
2022/12/29 00:59:45;;;;;;;8.90;4.73;;;5.80;99.90;;;;;;5000008;28;20197;-84
2022/12/29 01:02:12;;;;;;;8.20;4.90;;;5.70;99.90;;;;;;4999168;28;20702;-77
2022/12/29 01:04:39;;;;;;;8.93;4.70;;;5.90;99.90;;;;;;4998979;28;20287;-80
2022/12/29 01:07:06;;;;;;;8.97;4.70;;;5.80;99.90;;;;;;5016577;28;20271;-79
2022/12/29 01:15:50;;;;;;;10.00;4.53;;;5.80;99.90;;;;;;4998755;28;20658;-81
2022/12/29 01:18:17;;;;;;;9.53;4.63;;;5.80;99.90;;;;;;4999186;28;20187;-82
2022/12/29 01:20:44;;;;;;;8.23;4.20;;;5.80;99.90;;;;;;4998674;28;20316;-81
2022/12/29 01:23:11;;;;;;;7.67;4.37;;;5.80;99.90;;;;;;5016677;28;20197;-84
2022/12/29 01:25:38;;;;;;;9.40;4.77;;;5.80;99.90;;;;;;4999030;28;20200;-82
2022/12/29 01:28:06;;;;;;;8.93;4.60;;;5.70;99.90;;;;;;4999325;28;20198;-83
2022/12/29 01:30:33;;;;;;;9.00;4.13;;;5.80;99.90;;;;;;5016465;28;20213;-85
2022/12/29 01:33:00;;;;;;;7.10;3.87;;;5.80;99.90;;;;;;4998270;28;20200;-81
2022/12/29 01:35:28;;;;;;;8.87;4.37;;;5.80;99.90;;;;;;5003322;28;20236;-84
2022/12/29 01:37:54;;;;;;;10.80;4.27;;;5.80;99.90;;;;;;5014233;28;20197;-81
2022/12/29 01:40:21;;;;;;;9.77;4.40;;;5.80;99.90;;;;;;5015439;28;20203;-84
2022/12/29 01:42:48;;;;;;;8.63;4.17;;;5.80;99.90;;;;;;4994651;28;20232;-85
2022/12/29 01:45:17;;;;;;;9.27;4.07;;;5.80;99.90;;;;;;4996126;28;20219;-84
2022/12/29 01:47:55;;;;;;;7.63;4.13;;;5.80;99.90;;;;;;4994905;28;20227;-75
2022/12/29 01:50:50;;;;;;;8.47;4.30;;;5.70;99.90;;;;;;5007039;28;20194;-80
2022/12/29 01:53:28;;;;;;;7.90;3.90;;;5.80;99.90;;;;;;5018454;28;20202;-74
2022/12/29 01:56:04;;;;;;;9.60;4.33;;;5.80;99.90;;;;;;5022468;28;20205;-85
2022/12/29 01:58:37;;;;;;;8.37;4.13;;;5.80;99.90;;;;;;4994892;28;20203;-80
2022/12/29 02:01:07;;;;;;;6.73;3.90;;;5.80;99.90;;;;;;4994568;28;20241;-75
2022/12/29 02:03:36;;;;;;;7.17;3.97;;;5.80;99.90;;;;;;4994652;28;20195;-79
2022/12/29 02:06:15;;;;;;;8.50;4.10;;;5.80;99.90;;;;;;4994486;28;20680;-76
2022/12/29 02:08:45;;;;;;;7.43;3.80;;;5.80;99.90;;;;;;4996836;28;20212;-77
2022/12/29 02:11:13;;;;;;;9.07;4.07;;;5.80;99.90;;;;;;5030192;28;20196;-77
2022/12/29 02:13:40;;;;;;;8.37;3.97;;;5.70;99.90;;;;;;5030686;28;20570;-81
2022/12/29 02:16:25;;;;;;;8.23;4.10;;;5.70;99.90;;;;;;5030057;28;20810;-82
2022/12/29 02:19:05;;;;;;;7.07;3.67;;;5.70;99.90;;;;;;5030497;28;20271;-85
2022/12/29 02:22:07;;;;;;;6.17;3.70;;;5.70;99.90;;;;;;5030397;28;20271;-86
2022/12/29 02:24:59;;;;;;;6.90;3.67;;;5.80;99.90;;;;;;5030067;28;20200;-79
2022/12/29 02:27:48;;;;;;;7.67;3.80;;;5.80;99.90;;;;;;5025138;28;20203;-81
2022/12/29 02:30:33;;;;;;;7.70;3.90;;;5.70;99.90;;;;;;5013218;28;20234;-84
2022/12/29 02:33:13;;;;;;;9.07;3.63;;;5.60;99.90;;;;;;5029909;28;20210;-78
2022/12/29 02:36:07;;;;;;;9.07;3.53;;;5.60;99.90;;;;;;5013360;28;20207;-78
2022/12/29 02:39:07;;;;;;;5.93;3.70;;;5.60;99.90;;;;;;5030050;28;20196;-76
2022/12/29 02:41:49;;;;;;;6.57;3.70;;;5.60;99.90;;;;;;5031928;28;20775;-81
2022/12/29 02:44:48;;;;;;;7.57;4.00;;;5.60;99.90;;;;;;5016378;28;20253;-78
2022/12/29 02:47:29;;;;;;;5.90;3.43;;;5.60;99.90;;;;;;4937801;29;20209;-83
2022/12/29 02:50:13;;;;;;;6.83;3.80;;;5.50;99.90;;;;;;4953990;29;20193;-84
2022/12/29 02:52:50;;;;;;;6.43;3.60;;;5.50;99.90;;;;;;4938157;29;20261;-83
2022/12/29 02:55:17;;;;;;;8.23;3.60;;;5.40;99.90;;;;;;4953902;29;20197;-75
2022/12/29 02:57:44;;;;;;;6.47;3.47;;;5.30;99.90;;;;;;4953789;29;20787;-76
2022/12/29 03:00:14;;;;;;;6.67;3.50;;;5.30;99.90;;;;;;4937596;29;20202;-75
2022/12/29 03:03:11;;;;;;;6.43;3.40;;;5.30;99.90;;;;;;4937452;29;20414;-75
2022/12/29 03:05:53;;;;;;;7.77;3.57;;;5.20;99.90;;;;;;4937468;29;20212;-76
2022/12/29 03:08:25;;;;;;;6.10;3.40;;;5.10;99.90;;;;;;4937709;29;20286;-73
2022/12/29 03:11:02;;;;;;;5.77;3.37;;;5.00;99.90;;;;;;4937169;29;20221;-75
2022/12/29 03:16:32;;;;;;;4.90;3.27;;;4.80;99.90;;;;;;4937206;29;20202;-72
2022/12/29 03:19:15;;;;;;;8.83;3.77;;;4.70;99.90;;;;;;4937431;29;20210;-74
2022/12/29 03:24:40;;;;;;;6.67;3.77;;;4.60;99.90;;;;;;5006310;28;20202;-74
2022/12/29 03:27:13;;;;;;;8.23;3.63;;;4.50;99.90;;;;;;5016176;28;20208;-76
2022/12/29 03:29:46;;;;;;;7.90;3.80;;;4.60;99.90;;;;;;5015791;28;20222;-80
2022/12/29 03:32:15;;;;;;;6.30;3.67;;;4.60;99.90;;;;;;5015948;28;20202;-79
2022/12/29 03:34:44;;;;;;;6.90;3.77;;;4.50;99.90;;;;;;5015752;28;20192;-79
2022/12/29 03:37:14;;;;;;;6.40;3.90;;;4.60;99.90;;;;;;5015496;28;20594;-75
2022/12/29 03:39:44;;;;;;;6.97;3.70;;;4.60;99.90;;;;;;4999581;28;20197;-81
2022/12/29 03:42:18;;;;;;;9.40;4.13;;;4.60;99.90;;;;;;5011896;28;20225;-78
2022/12/29 03:44:46;;;;;;;7.47;3.77;;;4.60;99.90;;;;;;5028816;28;20204;-78
2022/12/29 03:47:14;;;;;;;6.20;3.70;;;4.50;99.90;;;;;;5028880;28;20212;-79
2022/12/29 03:49:41;;;;;;;7.67;3.83;;;4.50;99.90;;;;;;5012194;28;20190;-80
2022/12/29 03:52:08;;;;;;;9.17;4.23;;;4.50;99.90;;;;;;5012382;28;20205;-79
2022/12/29 03:54:35;;;;;;;7.53;4.03;;;4.50;99.90;;;;;;5028416;28;20212;-79
2022/12/29 03:57:02;;;;;;;6.50;4.00;;;4.50;99.90;;;;;;5028407;28;20204;-78
2022/12/29 03:59:28;;;;;;;6.77;3.80;;;4.50;99.90;;;;;;5011676;28;20192;-79
2022/12/29 04:01:55;;;;;;;9.43;4.70;;;4.40;99.90;;;;;;5013018;28;20224;-73
2022/12/29 04:04:22;;;;;;;8.80;4.20;;;4.30;99.90;;;;;;5012086;28;20291;-75
2022/12/29 04:06:49;;;;;;;8.43;4.40;;;4.20;99.90;;;;;;5011827;28;20227;-73
2022/12/29 04:09:16;;;;;;;9.47;4.43;;;4.20;99.90;;;;;;5013087;28;20655;-79
2022/12/29 04:11:43;;;;;;;8.10;4.53;;;4.30;99.90;;;;;;5028001;28;20212;-74
2022/12/29 04:14:10;;;;;;;9.80;5.00;;;4.20;99.90;;;;;;5011933;28;20200;-77
2022/12/29 04:16:38;;;;;;;10.03;5.27;;;4.20;99.90;;;;;;5013079;28;20238;-74
2022/12/29 04:19:07;;;;;;;9.37;5.10;;;4.20;99.90;;;;;;5013009;28;20247;-73
2022/12/29 04:21:34;;;;;;;9.43;4.90;;;4.20;99.90;;;;;;5011785;28;20215;-75
2022/12/29 04:24:01;;;;;;;10.03;5.03;;;4.20;99.90;;;;;;5011633;28;20735;-77
2022/12/29 04:26:28;;;;;;;11.63;5.27;;;4.20;99.90;;;;;;5027973;28;20192;-76
2022/12/29 04:28:55;;;;;;;10.17;5.17;;;4.20;99.90;;;;;;5011575;28;20249;-75
2022/12/29 04:31:22;;;;;;;11.07;5.53;;;4.20;99.90;;;;;;5028499;28;20207;-79
2022/12/29 04:33:48;;;;;;;11.23;5.77;;;4.10;99.90;;;;;;5013184;28;20250;-75
2022/12/29 04:36:15;;;;;;;10.97;5.63;;;4.20;99.90;;;;;;5012873;28;20684;-81
2022/12/29 04:38:44;;;;;;;11.67;5.63;;;4.10;99.90;;;;;;5028252;28;20229;-76
2022/12/29 04:41:11;;;;;;;12.63;5.67;;;4.10;99.90;;;;;;5027659;28;20216;-76
2022/12/29 04:43:38;;;;;;;12.33;6.00;;;4.10;99.90;;;;;;5011718;28;20228;-76
2022/12/29 04:46:05;;;;;;;11.70;5.97;;;4.10;99.90;;;;;;5028697;28;20200;-80
2022/12/29 04:48:33;;;;;;;13.73;5.67;;;4.10;99.90;;;;;;5012005;28;20572;-81
2022/12/29 04:51:00;;;;;;;13.30;6.10;;;4.10;99.90;;;;;;5028352;28;20540;-81
2022/12/29 04:53:27;;;;;;;12.83;6.17;;;4.10;99.90;;;;;;5011590;28;20702;-80
2022/12/29 04:55:54;;;;;;;11.97;5.87;;;4.10;99.90;;;;;;5011271;28;20200;-81
2022/12/29 04:58:21;;;;;;;11.63;5.87;;;4.10;99.90;;;;;;5028538;28;20202;-83
2022/12/29 05:00:51;;;;;;;13.57;6.43;;;4.10;99.90;;;;;;5028522;28;20239;-83
2022/12/29 05:03:18;;;;;;;13.27;6.23;;;4.10;99.90;;;;;;5011336;28;20230;-82
2022/12/29 05:05:45;;;;;;;13.63;6.00;;;4.00;99.90;;;;;;5028046;28;20671;-82
2022/12/29 05:08:12;;;;;;;14.20;6.53;;;4.00;99.90;;;;;;5011598;28;20194;-80
2022/12/29 05:10:39;;;;;;;12.57;5.80;;;4.00;99.90;;;;;;5027752;28;20188;-82
2022/12/29 05:13:06;;;;;;;12.77;5.93;;;4.00;99.90;;;;;;5031261;28;20205;-82
2022/12/29 05:15:33;;;;;;;12.27;5.50;;;4.10;99.90;;;;;;5015224;28;20235;-82
2022/12/29 05:21:23;;;;;;;13.10;5.70;;;4.00;99.90;;;;;;5016438;28;20244;-82
2022/12/29 05:23:50;;;;;;;12.00;5.80;;;3.90;99.90;;;;;;5016216;28;20200;-81
2022/12/29 05:26:17;;;;;;;11.90;5.83;;;4.00;99.90;;;;;;5016149;28;20207;-77
2022/12/29 05:28:44;;;;;;;11.83;5.73;;;4.00;99.90;;;;;;5014739;28;20237;-75
2022/12/29 05:31:11;;;;;;;10.37;5.80;;;4.00;99.90;;;;;;5014692;28;20193;-74
2022/12/29 05:33:38;;;;;;;12.43;5.83;;;4.00;99.90;;;;;;5015406;28;20634;-75
2022/12/29 05:36:06;;;;;;;14.03;6.20;;;4.00;99.90;;;;;;5031224;28;20627;-73
2022/12/29 05:38:34;;;;;;;10.73;5.80;;;4.10;99.90;;;;;;5014600;28;20196;-73
2022/12/29 05:41:01;;;;;;;14.00;5.70;;;4.00;99.90;;;;;;4998409;28;20189;-74
2022/12/29 05:43:28;;;;;;;11.53;5.57;;;4.10;99.90;;;;;;5031172;28;20264;-78
2022/12/29 05:45:56;;;;;;;12.20;5.60;;;4.10;99.90;;;;;;5014488;28;20535;-74
2022/12/29 05:48:23;;;;;;;11.10;5.30;;;4.10;99.90;;;;;;5030867;28;20214;-75
2022/12/29 05:50:51;;;;;;;11.93;5.57;;;4.20;99.90;;;;;;5014361;28;20195;-73
2022/12/29 05:53:23;;;;;;;11.40;5.53;;;4.20;99.90;;;;;;5015367;28;20195;-77
2022/12/29 05:55:50;;;;;;;9.60;5.63;;;4.20;99.90;;;;;;5030565;28;20292;-74
2022/12/29 05:58:17;;;;;;;12.00;5.43;;;4.20;99.90;;;;;;5014525;28;20188;-74
2022/12/29 06:00:44;;;;;;;13.27;5.60;;;4.20;99.90;;;;;;5030774;28;20209;-81
2022/12/29 06:03:11;;;;;;;11.87;5.37;;;4.20;99.90;;;;;;5014148;28;20227;-82
2022/12/29 06:05:39;;;;;;;11.00;5.43;;;4.20;99.90;;;;;;5031099;28;20212;-82
2022/12/29 06:08:05;;;;;;;11.37;5.10;;;4.20;99.90;;;;;;5015831;28;20275;-79
2022/12/29 06:10:32;;;;;;;11.60;5.13;;;4.20;99.90;;;;;;5015659;28;20186;-80
2022/12/29 06:12:59;;;;;;;10.47;5.47;;;4.20;99.90;;;;;;5014464;28;20200;-85
2022/12/29 06:15:26;;;;;;;8.57;4.97;;;4.30;99.90;;;;;;4998283;28;20669;-85
2022/12/29 06:17:53;;;;;;;11.47;5.30;;;4.40;99.90;;;;;;5014565;28;20246;-83
2022/12/29 06:20:20;;;;;;;11.00;4.97;;;4.40;99.90;;;;;;5014443;28;20197;-83
2022/12/29 06:22:47;;;;;;;10.60;4.90;;;4.40;99.90;;;;;;5014506;28;20243;-83
2022/12/29 06:25:15;;;;;;;10.87;5.10;;;4.40;99.90;;;;;;5014226;28;20203;-83
2022/12/29 06:27:42;;;;;;;10.47;4.70;;;4.50;99.90;;;;;;5030430;28;20629;-83
2022/12/29 06:30:10;;;;;;;8.90;4.50;;;4.60;99.90;;;;;;5030904;28;20239;-82
2022/12/29 06:32:37;;;;;;;9.37;5.00;;;4.60;99.90;;;;;;5018050;28;20200;-76
2022/12/29 06:35:08;;;;;;;9.20;5.17;;;4.60;99.90;;;;;;4993857;28;20193;-74
2022/12/29 06:37:35;;;;;;;10.93;4.60;;;4.70;99.90;;;;;;4994009;28;20281;-80
2022/12/29 06:40:02;;;;;;;11.43;5.30;;;4.70;99.90;;;;;;5006639;28;20209;-81
2022/12/29 06:42:29;;;;;;;8.73;4.50;;;4.70;99.90;;;;;;5013042;28;20318;-76
2022/12/29 06:44:58;;;;;;;13.17;4.70;;;4.70;99.90;;;;;;5002100;28;20197;-74
2022/12/29 06:47:25;;;;;;;11.03;4.93;;;4.70;99.90;;;;;;4993456;28;20297;-80
2022/12/29 06:49:57;;;;;;;10.70;4.77;;;4.70;99.90;;;;;;4995283;28;20218;-74
2022/12/29 06:52:24;;;;;;;10.60;4.80;;;4.70;99.90;;;;;;4993607;28;20201;-83
2022/12/29 06:54:51;;;;;;;9.70;4.73;;;4.70;99.90;;;;;;4993858;28;20197;-75
2022/12/29 06:57:18;;;;;;;10.63;5.03;;;4.70;99.90;;;;;;4994842;28;20251;-82
2022/12/29 06:59:45;;;;;;;12.50;5.10;;;4.80;99.90;;;;;;4993193;28;20199;-73
2022/12/29 07:02:14;;;;;;;9.40;4.43;;;4.80;99.90;;;;;;4993361;28;20629;-74
2022/12/29 07:04:41;;;;;;;9.57;4.63;;;4.80;99.90;;;;;;4993195;28;20195;-74
2022/12/29 07:07:08;;;;;;;11.03;4.83;;;4.90;99.90;;;;;;4993125;28;20200;-73
2022/12/29 07:09:35;;;;;;;8.63;4.40;;;4.90;99.90;;;;;;4993263;28;20660;-76
2022/12/29 07:12:02;;;;;;;8.53;4.60;;;4.90;99.90;;;;;;5006857;28;20193;-77
2022/12/29 07:14:29;;;;;;;8.17;4.33;;;4.90;99.90;;;;;;4995907;28;20199;-80
2022/12/29 07:16:55;;;;;;;8.77;4.63;;;5.00;99.90;;;;;;4999130;28;20204;-77
2022/12/29 07:19:23;;;;;;;8.40;4.87;;;5.00;99.90;;;;;;5029187;28;20180;-79
2022/12/29 07:21:50;;;;;;;8.37;4.77;;;5.10;99.90;;;;;;5029324;28;20199;-77
2022/12/29 07:24:17;;;;;;;9.57;4.27;;;5.10;99.90;;;;;;5013239;28;20200;-86
2022/12/29 07:26:44;;;;;;;8.80;4.40;;;5.10;99.90;;;;;;5009315;28;20263;-84
2022/12/29 07:29:13;;;;;;;11.80;4.80;;;5.20;99.90;;;;;;4993593;28;20220;-81
2022/12/29 07:31:43;;;;;;;13.10;5.20;;;5.10;99.90;;;;;;5003234;28;20192;-85
2022/12/29 07:34:10;;;;;;;9.97;4.83;;;5.20;99.90;;;;;;5004593;28;20214;-92
2022/12/29 07:36:42;;;;;;;8.13;4.43;;;5.20;99.90;;;;;;5030007;28;20192;-87
2022/12/29 07:39:09;;;;;;;9.80;4.47;;;5.20;99.90;;;;;;4986144;28;20286;-89
2022/12/29 07:41:36;;;;;;;12.33;4.70;;;5.20;99.90;;;;;;5006087;28;20228;-90
2022/12/29 07:44:03;;;;;;;9.77;4.47;;;5.20;99.90;;;;;;4996254;28;20231;-86
2022/12/29 07:46:39;;;;;;;8.17;4.47;;;5.30;99.90;;;;;;4981131;28;20203;-80
2022/12/29 07:49:22;;;;;;;9.07;4.37;;;5.30;99.90;;;;;;4987673;28;20643;-78
2022/12/29 07:51:49;;;;;;;8.83;4.30;;;5.40;99.90;;;;;;4996362;28;20255;-82
2022/12/29 07:54:19;;;;;;;8.13;4.20;;;5.40;99.90;;;;;;5015650;28;20235;-87
2022/12/29 07:56:46;;;;;;;9.13;4.80;;;5.40;99.90;;;;;;5035736;28;20295;-91
2022/12/29 07:59:20;;;;;;;11.67;4.77;;;5.40;99.90;;;;;;5031000;28;20198;-90
2022/12/29 08:01:47;;;;;;;9.67;4.23;;;5.40;99.90;;;;;;5052671;28;20202;-78
2022/12/29 08:04:17;;;;;;;9.47;4.50;;;5.50;99.90;;;;;;5053816;28;20343;-82
2022/12/29 08:06:47;;;;;;;8.03;4.40;;;5.50;99.90;;;;;;5036934;28;20193;-88
2022/12/29 08:09:18;;;;;;;9.17;4.43;;;5.50;99.90;;;;;;5030496;28;20188;-89
2022/12/29 08:11:56;;;;;;;8.40;4.40;;;5.70;99.90;;;;;;5011341;28;20206;-80
2022/12/29 08:14:23;;;;;;;8.77;4.27;;;5.60;99.90;;;;;;5025874;28;20196;-75
2022/12/29 08:16:50;;;;;;;9.30;3.97;;;5.70;99.90;;;;;;5053242;28;20204;-79
2022/12/29 08:19:17;;;;;;;7.90;4.20;;;5.70;99.90;;;;;;5052304;28;20594;-78
2022/12/29 08:21:44;;;;;;;7.90;4.30;;;5.80;99.90;;;;;;5034616;28;20215;-77
2022/12/29 08:24:11;;;;;;;9.88;4.97;;;5.80;99.90;;;;;;5017928;28;20523;-76
2022/12/29 08:26:38;;;;;;;10.23;4.47;;;5.90;99.90;;;;;;5018222;28;20534;-76
2022/12/29 08:29:05;;;;;;;7.93;4.10;;;5.90;99.90;;;;;;5015001;28;20215;-77
2022/12/29 08:31:32;;;;;;;8.93;4.27;;;5.90;99.90;;;;;;5015042;28;20205;-75
2022/12/29 08:34:01;;;;;;;7.90;4.20;;;6.00;99.90;;;;;;5031166;28;20232;-77
2022/12/29 08:36:28;;;;;;;8.43;4.27;;;6.00;99.90;;;;;;5030952;28;20296;-76
2022/12/29 08:38:55;;;;;;;8.60;3.97;;;6.00;99.90;;;;;;5015090;28;20209;-76
2022/12/29 08:41:22;;;;;;;8.10;3.83;;;6.20;99.90;;;;;;5014226;28;20192;-76
2022/12/29 08:43:50;;;;;;;9.23;4.13;;;6.10;99.90;;;;;;5013760;28;20230;-82
2022/12/29 08:46:17;;;;;;;7.00;4.10;;;6.20;99.90;;;;;;5021480;28;20240;-76
2022/12/29 08:48:49;;;;;;;9.37;4.37;;;6.20;99.90;;;;;;5034566;28;20192;-76
2022/12/29 08:51:16;;;;;;;7.53;4.00;;;6.30;99.90;;;;;;5035805;28;20663;-76
2022/12/29 08:53:52;;;;;;;8.33;4.10;;;6.20;99.90;;;;;;5039429;28;20189;-76
2022/12/29 08:56:23;;;;;;;7.57;4.13;;;6.40;99.90;;;;;;5037935;28;20633;-76
2022/12/29 08:58:51;;;;;;;7.97;4.27;;;6.40;99.90;;;;;;5019126;28;20198;-74
2022/12/29 09:01:19;;;;;;;7.30;4.07;;;6.40;99.90;;;;;;5002182;28;20208;-75
2022/12/29 09:03:46;;;;;;;10.80;4.43;;;6.50;99.90;;;;;;4998322;28;20234;-78
2022/12/29 09:06:33;;;;;;;7.10;3.90;;;6.50;99.90;;;;;;4985274;28;20244;-74
2022/12/29 09:09:06;;;;;;;9.73;4.13;;;6.50;99.90;;;;;;5005346;28;20575;-77
2022/12/29 09:11:33;;;;;;;7.97;3.90;;;6.60;99.90;;;;;;4998162;28;20284;-74
2022/12/29 09:14:00;;;;;;;7.93;4.17;;;6.60;99.90;;;;;;5015016;28;20249;-74
2022/12/29 09:16:27;;;;;;;8.73;4.20;;;6.60;99.90;;;;;;5001046;28;20289;-74
2022/12/29 09:18:54;;;;;;;9.33;4.20;;;6.60;99.90;;;;;;5033965;28;20203;-75
2022/12/29 09:21:21;;;;;;;8.53;4.17;;;6.60;99.90;;;;;;5037857;28;20197;-78
2022/12/29 09:23:48;;;;;;;8.33;4.30;;;6.60;99.90;;;;;;5054332;28;20314;-75
2022/12/29 09:26:20;;;;;;;7.40;4.07;;;6.70;99.90;;;;;;5030760;28;20665;-72
2022/12/29 09:28:50;;;;;;;8.90;4.33;;;6.70;99.90;;;;;;5011431;28;20728;-74
2022/12/29 09:31:17;;;;;;;6.73;3.80;;;6.80;99.90;;;;;;5044724;28;20199;-76
2022/12/29 09:33:43;;;;;;;6.97;4.07;;;6.80;99.90;;;;;;5020030;28;20199;-76
2022/12/29 09:36:10;;;;;;;7.17;3.80;;;6.80;99.90;;;;;;4993123;28;20209;-76
2022/12/29 09:38:37;;;;;;;8.90;4.10;;;6.80;99.90;;;;;;5017735;28;20614;-78
2022/12/29 09:41:30;;;;;;;8.10;4.03;;;6.90;99.90;;;;;;5014264;28;20253;-78
2022/12/29 09:44:31;;;;;;;7.23;3.90;;;6.90;99.90;;;;;;5015393;28;20248;-77
2022/12/29 09:47:00;;;;;;;8.27;3.97;;;6.90;99.90;;;;;;5024388;28;20209;-77
2022/12/29 09:49:49;;;;;;;10.03;4.30;;;6.90;99.90;;;;;;5009709;28;20202;-76
2022/12/29 09:52:21;;;;;;;8.43;4.10;;;6.90;99.90;;;;;;5044535;28;20226;-80
2022/12/29 09:54:57;;;;;;;9.30;4.40;;;7.10;99.90;;;;;;5037280;28;20295;-79
2022/12/29 09:57:57;;;;;;;8.30;4.27;;;7.10;99.90;;;;;;5054370;28;20220;-78
2022/12/29 10:00:37;;;;;;;7.07;4.00;;;7.00;99.90;;;;;;5006725;28;20923;-80
2022/12/29 10:03:16;;;;;;;10.20;4.03;;;7.10;99.90;;;;;;5003714;28;20203;-78
2022/12/29 10:06:01;;;;;;;9.93;4.30;;;7.20;99.90;;;;;;5023495;28;20198;-80
2022/12/29 10:08:40;;;;;;;7.53;3.87;;;7.20;99.90;;;;;;4997559;28;20192;-79
2022/12/29 10:11:26;;;;;;;6.30;3.80;;;7.10;99.90;;;;;;5014774;28;20200;-80
2022/12/29 10:14:03;;;;;;;6.50;4.13;;;7.10;99.90;;;;;;4982444;28;20203;-80
2022/12/29 10:16:58;;;;;;;7.97;4.43;;;7.10;99.90;;;;;;4997306;28;20668;-78
2022/12/29 10:19:37;;;;;;;8.20;4.07;;;7.20;99.90;;;;;;4996809;28;20207;-81
2022/12/29 10:22:16;;;;;;;7.27;4.17;;;7.10;99.90;;;;;;4997372;28;20203;-85
2022/12/29 10:24:47;;;;;;;8.43;3.90;;;7.10;99.90;;;;;;5015660;28;20218;-81
2022/12/29 10:27:16;;;;;;;7.87;4.37;;;7.20;99.90;;;;;;5033666;28;20661;-77
2022/12/29 10:29:56;;;;;;;7.87;4.10;;;7.20;99.90;;;;;;5025965;28;20215;-82
2022/12/29 10:32:36;;;;;;;8.93;4.30;;;7.10;99.90;;;;;;5018528;28;20225;-81
2022/12/29 10:35:12;;;;;;;7.57;4.07;;;7.10;99.90;;;;;;5020975;28;20198;-81
2022/12/29 10:37:47;;;;;;;7.30;4.37;;;7.10;99.90;;;;;;5016118;28;20194;-84
2022/12/29 10:40:31;;;;;;;8.07;4.30;;;7.20;99.90;;;;;;5033858;28;20232;-80
2022/12/29 10:43:05;;;;;;;9.33;4.43;;;7.40;99.90;;;;;;5014501;28;20236;-82
2022/12/29 10:45:33;;;;;;;7.87;4.30;;;7.40;99.90;;;;;;5005849;28;20195;-82
2022/12/29 10:48:05;;;;;;;10.27;4.70;;;7.50;99.90;;;;;;5008044;28;20192;-85
2022/12/29 10:50:33;;;;;;;9.73;4.87;;;7.50;99.90;;;;;;5008664;28;20191;-89
2022/12/29 10:53:04;;;;;;;9.50;4.50;;;7.60;99.90;;;;;;5023024;28;20195;-85
2022/12/29 10:55:35;;;;;;;9.97;4.30;;;7.60;99.90;;;;;;5003313;28;20194;-82
2022/12/29 10:58:05;;;;;;;9.93;4.43;;;7.70;99.90;;;;;;5005806;28;20211;-83
2022/12/29 11:00:34;;;;;;;8.33;4.40;;;7.60;99.90;;;;;;5004376;28;20198;-86
2022/12/29 11:03:43;;;;;;;9.80;4.60;;;7.70;99.90;;;;;;5015703;28;20221;-82
2022/12/29 11:06:33;;;;;;;7.77;4.40;;;7.70;99.90;;;;;;5017020;28;20241;-87
2022/12/29 11:09:14;;;;;;;9.17;4.60;;;7.70;99.90;;;;;;5013452;28;20552;-84
2022/12/29 11:11:46;;;;;;;7.77;4.40;;;7.80;99.90;;;;;;5045912;28;20673;-82
2022/12/29 11:14:31;;;;;;;8.87;4.40;;;7.70;99.90;;;;;;5036195;28;20208;-86
2022/12/29 11:17:03;;;;;;;11.13;4.77;;;7.80;99.90;;;;;;5025994;28;20221;-83
2022/12/29 11:19:42;;;;;;;10.93;4.60;;;7.80;99.90;;;;;;5034973;28;20191;-89
2022/12/29 11:22:22;;;;;;;9.57;4.50;;;7.80;99.90;;;;;;5017121;28;20645;-88
2022/12/29 11:25:13;;;;;;;7.57;4.47;;;7.80;99.90;;;;;;5018226;28;20226;-88
2022/12/29 11:32:18;;;;;;;10.37;4.23;;;7.90;99.90;;;;;;4993734;28;20661;-90
2022/12/29 11:34:58;;;;;;;9.03;4.27;;;7.90;99.90;;;;;;4992794;28;20649;-92
2022/12/29 11:37:42;;;;;;;8.23;4.30;;;8.00;99.90;;;;;;4976038;28;20240;-91
2022/12/29 11:40:22;;;;;;;9.83;5.20;;;8.00;99.90;;;;;;4990140;28;20597;-91
2022/12/29 11:43:02;;;;;;;9.97;5.20;;;8.00;99.90;;;;;;4979586;28;20331;-91
2022/12/29 11:45:33;;;;;;;8.63;4.80;;;8.00;99.90;;;;;;4961031;28;20211;-88
2022/12/29 11:48:14;;;;;;;7.90;4.43;;;8.00;99.90;;;;;;4975370;28;20296;-87
2022/12/29 11:50:51;;;;;;;9.67;4.83;;;7.90;99.90;;;;;;4970801;28;20302;-85
2022/12/29 11:53:28;;;;;;;7.33;4.33;;;8.00;99.90;;;;;;4975549;28;20195;-84
2022/12/29 11:55:57;;;;;;;8.23;4.20;;;7.90;99.90;;;;;;4976217;28;20212;-82
2022/12/29 11:58:36;;;;;;;9.17;4.87;;;8.00;99.90;;;;;;4989266;28;20192;-85
2022/12/29 12:01:16;;;;;;;8.17;4.20;;;8.00;99.90;;;;;;4967616;28;20205;-86
2022/12/29 12:04:18;;;;;;;13.30;4.97;;;8.10;99.90;;;;;;4982390;28;20330;-85
2022/12/29 12:07:18;;;;;;;7.10;4.33;;;8.10;99.90;;;;;;4994524;28;20207;-89
2022/12/29 12:10:38;;;;;;;9.60;4.30;;;8.20;99.90;;;;;;5021580;28;20185;-92
2022/12/29 12:13:40;;;;;;;9.33;4.40;;;8.20;99.90;;;;;;4992867;28;20269;-91
2022/12/29 12:16:41;;;;;;;11.13;5.27;;;8.20;99.90;;;;;;4919028;29;20209;-90
2022/12/29 12:19:40;;;;;;;9.53;4.40;;;8.20;99.90;;;;;;4914325;29;20205;-91
2022/12/29 12:29:46;;;;;;;9.20;4.33;;;8.30;99.90;;;;;;5106237;23;20241;-86
2022/12/29 12:32:44;;;;;;;9.03;4.80;;;8.40;99.90;;;;;;5053432;28;20250;-91
2022/12/29 12:35:13;;;;;;;8.70;4.60;;;8.30;99.90;;;;;;5058178;28;20519;-85
2022/12/29 12:38:29;;;;;;;7.83;4.50;;;8.40;99.90;;;;;;5055927;28;20198;-85
2022/12/29 12:44:49;;;;;;;10.57;5.10;;;8.40;99.90;;;;;;5038846;28;20277;-89
2022/12/29 12:47:53;;;;;;;8.60;4.80;;;8.40;99.90;;;;;;5069322;28;20273;-89
2022/12/29 12:50:42;;;;;;;9.80;4.57;;;8.40;99.90;;;;;;5040898;28;20614;-86
2022/12/29 12:53:50;;;;;;;9.23;4.77;;;8.40;99.90;;;;;;5055077;28;20205;-84
2022/12/29 12:56:35;;;;;;;10.57;4.30;;;8.50;99.90;;;;;;4975414;28;20212;-85
2022/12/29 12:59:13;;;;;;;9.37;4.63;;;8.50;99.90;;;;;;4966307;28;20656;-81
2022/12/29 13:02:12;;;;;;;9.43;4.90;;;8.50;99.90;;;;;;5001312;28;20199;-91
2022/12/29 13:05:42;;;;;;;9.50;4.40;;;8.50;99.90;;;;;;4984388;28;20222;-84
2022/12/29 13:09:03;;;;;;;9.27;4.80;;;8.70;99.90;;;;;;4948381;28;20196;-80
2022/12/29 13:11:52;;;;;;;9.47;4.80;;;8.60;99.90;;;;;;4946326;28;20228;-84
2022/12/29 13:14:52;;;;;;;10.00;5.17;;;8.70;99.90;;;;;;4925235;29;20203;-87
2022/12/29 13:17:43;;;;;;;9.83;4.50;;;8.70;99.90;;;;;;4939641;29;20636;-82
2022/12/29 13:20:27;;;;;;;7.77;4.53;;;8.70;99.90;;;;;;4939856;29;20216;-86
2022/12/29 13:23:20;;;;;;;12.57;4.57;;;8.70;99.90;;;;;;4939573;29;20202;-82
2022/12/29 13:25:56;;;;;;;9.70;4.97;;;8.70;99.90;;;;;;4939270;29;20212;-83
2022/12/29 13:28:29;;;;;;;9.33;4.33;;;8.80;99.90;;;;;;4938409;29;20224;-87
2022/12/29 13:31:33;;;;;;;9.57;4.43;;;8.80;99.90;;;;;;4959661;28;20268;-80
2022/12/29 13:34:22;;;;;;;8.17;4.70;;;8.80;99.90;;;;;;4992724;28;20291;-85
2022/12/29 13:37:33;;;;;;;9.10;4.80;;;8.80;99.90;;;;;;4991208;28;20205;-88
2022/12/29 13:40:13;;;;;;;8.57;4.60;;;8.80;99.90;;;;;;4977909;28;20561;-78
2022/12/29 13:42:43;;;;;;;10.03;4.80;;;8.80;99.90;;;;;;4974778;28;20252;-81
2022/12/29 13:46:04;;;;;;;8.60;4.60;;;9.00;99.90;;;;;;5033664;28;20226;-84
2022/12/29 13:48:40;;;;;;;8.93;4.47;;;8.80;99.90;;;;;;5056142;28;20654;-82
2022/12/29 13:51:10;;;;;;;7.97;4.40;;;8.80;99.90;;;;;;5056741;28;20217;-83
2022/12/29 13:54:16;;;;;;;9.83;4.80;;;8.80;99.90;;;;;;5038680;28;20196;-84
2022/12/29 13:57:10;;;;;;;10.20;4.60;;;8.90;99.90;;;;;;5067769;28;20193;-85
2022/12/29 14:00:32;;;;;;;11.87;4.80;;;8.90;99.90;;;;;;4980523;28;20245;-85
2022/12/29 14:03:20;;;;;;;9.83;4.40;;;8.90;99.90;;;;;;4960626;28;20220;-85
2022/12/29 14:06:40;;;;;;;9.30;4.80;;;8.90;99.90;;;;;;4992545;28;20703;-84
2022/12/29 14:09:32;;;;;;;9.70;5.00;;;8.90;99.90;;;;;;4982571;28;20200;-85
2022/12/29 14:12:06;;;;;;;11.20;5.17;;;8.90;99.90;;;;;;4992542;28;20665;-83
2022/12/29 14:14:36;;;;;;;10.40;4.90;;;8.90;99.90;;;;;;4976944;28;20300;-85
2022/12/29 14:17:11;;;;;;;10.40;4.80;;;8.90;99.90;;;;;;4974330;28;20522;-87
2022/12/29 14:19:46;;;;;;;8.23;4.57;;;8.90;99.90;;;;;;4973288;28;20251;-87
2022/12/29 14:22:13;;;;;;;9.20;4.80;;;8.90;99.90;;;;;;4986996;28;20205;-84
2022/12/29 14:24:46;;;;;;;7.97;4.87;;;8.90;99.90;;;;;;5028272;28;20226;-76
2022/12/29 14:27:13;;;;;;;9.63;5.07;;;8.90;99.90;;;;;;5069503;28;20190;-91